ARF0112 UHSS-UHHH
Flight info
| Callsign | ARF0112 |
|---|---|
| Flight time | N/A |
| Altitude | 30000 |
| Route | KENOM A969 MOGIS B150 NEBES |
| Aircraft | A319/M-VGD/A |
Departure
| Time | 2026-05-08 16:49 |
|---|---|
| Airport | Yuzhno-Sakhalinsk International Airport (UHSS) |
Arrival
| Time | N/A |
|---|---|
| Airport | Khabarovsk Novy Airport (UHHH) |
| Time | Latitude | Longitude | Altitude | Speed | Heading |
|---|---|---|---|---|---|
| 2026-05-08 16:36 | 46.88755 | 142.72272 | 68 ft | 0 kts | 2° |
| 2026-05-08 16:43 | 46.88757 | 142.72272 | 68 ft | 0 kts | 2° |
| 2026-05-08 16:43 | 46.88760 | 142.72269 | 68 ft | 0 kts | 311° |
| 2026-05-08 16:43 | 46.88759 | 142.72237 | 67 ft | 6 kts | 268° |
| 2026-05-08 16:43 | 46.88747 | 142.72147 | 64 ft | 11 kts | 246° |
| 2026-05-08 16:44 | 46.88683 | 142.72110 | 63 ft | 10 kts | 182° |
| 2026-05-08 16:44 | 46.88608 | 142.72107 | 63 ft | 11 kts | 180° |
| 2026-05-08 16:44 | 46.88525 | 142.72105 | 63 ft | 12 kts | 180° |
| 2026-05-08 16:44 | 46.88435 | 142.72105 | 63 ft | 13 kts | 180° |
| 2026-05-08 16:45 | 46.88340 | 142.72099 | 63 ft | 14 kts | 181° |
| 2026-05-08 16:45 | 46.88239 | 142.72096 | 63 ft | 14 kts | 181° |
| 2026-05-08 16:45 | 46.88132 | 142.72095 | 63 ft | 15 kts | 180° |
| 2026-05-08 16:45 | 46.88024 | 142.72080 | 61 ft | 16 kts | 209° |
| 2026-05-08 16:46 | 46.87968 | 142.71913 | 56 ft | 20 kts | 251° |
| 2026-05-08 16:46 | 46.87897 | 142.71729 | 51 ft | 22 kts | 207° |
| 2026-05-08 16:46 | 46.87741 | 142.71719 | 49 ft | 22 kts | 179° |
| 2026-05-08 16:46 | 46.87583 | 142.71722 | 47 ft | 23 kts | 179° |
| 2026-05-08 16:47 | 46.87420 | 142.71724 | 46 ft | 23 kts | 181° |
| 2026-05-08 16:47 | 46.87259 | 142.71722 | 44 ft | 23 kts | 180° |
| 2026-05-08 16:47 | 46.87101 | 142.71739 | 41 ft | 15 kts | 159° |
| 2026-05-08 16:47 | 46.87073 | 142.71703 | 40 ft | 4 kts | 337° |
| 2026-05-08 16:48 | 46.87088 | 142.71699 | 40 ft | 2 kts | 357° |
| 2026-05-08 16:48 | 46.87125 | 142.71698 | 41 ft | 29 kts | 0° |
| 2026-05-08 16:48 | 46.87599 | 142.71710 | 48 ft | 105 kts | 2° |
| 2026-05-08 16:48 | 46.88543 | 142.71748 | 159 ft | 155 kts | 2° |
| 2026-05-08 16:49 | 46.89624 | 142.71794 | 898 ft | 154 kts | 360° |
| 2026-05-08 16:49 | 46.90600 | 142.71660 | 1681 ft | 148 kts | 349° |
| 2026-05-08 16:49 | 46.91610 | 142.71263 | 2252 ft | 159 kts | 344° |
| 2026-05-08 16:49 | 46.92728 | 142.70847 | 2745 ft | 176 kts | 347° |
| 2026-05-08 16:50 | 46.92908 | 142.70785 | 2821 ft | 179 kts | 347° |